Eagleton, Wisconsin
Current Conditions -  °F | °C
As of 8:35 PM on Saturday 20 Dec 2014 (Local Time) from KY23 Reporting Station
Haze Haze  
Wind Chill: 23°   Ceiling: 1000
Heat Index: 31°   Visibility: 5mi
Dew Point: 28°   Wind: 8mph
Humidity: 90%   Direction: 140°SE
Pressure: 30.12"   Gusts: NA
Location:  45.1062°N, 91.4948°W
Report Text: KY23 210235Z AUTO 14007KT 5SM BR OVC010 M01/M02 A3012 RMK AO2 T10081022
Loading
Personal Weather Stations






























Interactive Weather Map New forecast layout! Learn more

10-Day Weather Forecast

Advertisements
Track Severe Weather on mobile